Time;durP1;ratioP1;P1;durP2;ratioP2;P2;SDS_P1;SDS_P2;PMS_P1;PMS_P2;Temp;Humidity;BMP_temperature;BMP_pressure;BME280_temperature;BME280_humidity;BME280_pressure;Samples;Min_cycle;Max_cycle;Signal;HPM_P1;HPM_P2
2023/02/18 00:08:35;;;;;;;0.20;0.10;;;9.00;99.90;;;;;;21143345;28;20390;-65
2023/02/18 00:18:40;;;;;;;0.20;0.10;;;9.20;99.90;;;;;;21141962;28;20770;-61
2023/02/18 00:28:47;;;;;;;0.20;0.10;;;9.30;99.90;;;;;;21142458;28;20452;-66
2023/02/18 00:38:59;;;;;;;0.20;0.10;;;10.90;99.90;;;;;;21141759;28;20398;-67
2023/02/18 00:49:04;;;;;;;0.20;0.10;;;11.80;99.90;;;;;;21141597;28;20393;-67
2023/02/18 00:59:08;;;;;;;0.20;0.10;;;12.10;99.90;;;;;;21128359;28;20414;-65
2023/02/18 01:09:13;;;;;;;0.20;0.10;;;12.40;99.90;;;;;;21140962;28;20390;-67
2023/02/18 01:19:17;;;;;;;0.20;0.10;;;12.60;99.90;;;;;;21158671;28;20864;-66
2023/02/18 01:29:23;;;;;;;0.20;0.10;;;12.70;99.90;;;;;;21139548;28;20447;-67
2023/02/18 01:39:27;;;;;;;0.20;0.10;;;13.10;99.90;;;;;;21173572;27;20455;-67
2023/02/18 01:49:35;;;;;;;0.20;0.10;;;13.00;99.90;;;;;;21156800;28;20403;-67
2023/02/18 01:59:42;;;;;;;0.20;0.10;;;12.70;99.90;;;;;;21156307;28;20411;-67
2023/02/18 02:09:48;;;;;;;1.20;1.20;;;12.30;99.90;;;;;;21154987;28;20405;-67
2023/02/18 02:20:28;;;;;;;0.20;0.10;;;11.50;99.90;;;;;;21118957;28;20437;-67
2023/02/18 02:31:20;;;;;;;0.20;0.03;;;11.50;99.90;;;;;;21135304;28;20394;-66
2023/02/18 02:41:39;;;;;;;0.20;0.10;;;12.00;99.90;;;;;;20996993;28;20410;-67
2023/02/18 02:51:49;;;;;;;0.20;0.00;;;11.40;99.90;;;;;;21133129;28;20407;-66
2023/02/18 03:02:14;;;;;;;0.20;0.00;;;10.70;99.90;;;;;;21133045;28;20395;-66
2023/02/18 03:12:25;;;;;;;0.20;0.10;;;10.20;99.90;;;;;;21131669;28;20410;-66
2023/02/18 03:22:35;;;;;;;0.20;0.10;;;9.80;99.90;;;;;;21149259;28;20485;-66
2023/02/18 03:32:39;;;;;;;0.20;0.10;;;9.90;99.90;;;;;;21130497;28;20911;-67
2023/02/18 03:42:45;;;;;;;0.60;0.60;;;9.80;99.90;;;;;;21148133;28;20390;-66
2023/02/18 03:52:49;;;;;;;0.20;0.10;;;9.80;99.90;;;;;;21147451;28;20416;-66
2023/02/18 04:02:54;;;;;;;0.20;0.20;;;10.50;99.90;;;;;;21146322;28;20471;-66
2023/02/18 04:12:58;;;;;;;0.20;0.10;;;10.30;99.90;;;;;;21146358;28;20420;-66
2023/02/18 04:23:04;;;;;;;0.20;0.10;;;10.50;99.90;;;;;;21145759;28;20794;-65
2023/02/18 04:33:07;;;;;;;0.20;0.10;;;10.30;99.90;;;;;;21148059;28;20474;-67
2023/02/18 04:43:13;;;;;;;0.20;0.10;;;10.40;99.90;;;;;;21142757;28;20744;-66
2023/02/18 04:53:16;;;;;;;0.20;0.10;;;10.00;99.90;;;;;;21161300;28;20559;-66
2023/02/18 05:03:22;;;;;;;0.20;0.10;;;9.60;99.90;;;;;;21160824;28;20402;-66
2023/02/18 05:13:26;;;;;;;0.20;0.00;;;9.60;99.90;;;;;;21159743;28;20428;-66
2023/02/18 05:23:31;;;;;;;0.20;0.10;;;9.50;99.90;;;;;;21158855;28;20415;-67
2023/02/18 05:33:34;;;;;;;0.20;0.10;;;9.20;99.90;;;;;;21154139;28;20414;-67
2023/02/18 05:53:57;;;;;;;0.20;0.07;;;10.60;99.90;;;;;;21131890;28;20413;-66
2023/02/18 06:04:03;;;;;;;0.20;0.03;;;11.00;99.90;;;;;;21151354;28;20407;-67
2023/02/18 06:14:07;;;;;;;0.20;0.10;;;10.50;99.90;;;;;;21149084;28;20406;-67
2023/02/18 06:24:12;;;;;;;0.20;0.10;;;10.00;99.90;;;;;;21149855;28;20387;-67
2023/02/18 06:34:16;;;;;;;0.20;0.10;;;9.50;99.90;;;;;;21059221;28;2107891;-66
2023/02/18 06:44:21;;;;;;;0.20;0.10;;;9.00;99.90;;;;;;21167425;27;20387;-66
2023/02/18 06:54:25;;;;;;;0.20;0.10;;;8.70;99.90;;;;;;21115113;28;20813;-68
2023/02/18 07:04:30;;;;;;;0.20;0.10;;;8.70;99.90;;;;;;21151157;28;20395;-67
2023/02/18 07:14:34;;;;;;;0.20;0.10;;;8.60;99.90;;;;;;21149821;28;20407;-67
2023/02/18 07:24:39;;;;;;;0.20;0.10;;;8.60;99.90;;;;;;21130594;28;20398;-67
2023/02/18 07:34:43;;;;;;;0.20;0.10;;;8.70;99.90;;;;;;21146938;28;20411;-68
2023/02/18 07:44:49;;;;;;;0.20;0.10;;;9.10;99.90;;;;;;21127678;28;20452;-67
2023/02/18 07:54:52;;;;;;;0.20;0.10;;;9.70;99.90;;;;;;21127069;28;20570;-67
2023/02/18 08:04:58;;;;;;;0.20;0.10;;;10.20;99.90;;;;;;21127311;28;20391;-67
2023/02/18 08:15:01;;;;;;;0.20;0.10;;;10.70;99.90;;;;;;21126721;28;20776;-67
2023/02/18 08:25:07;;;;;;;0.20;0.10;;;11.40;99.90;;;;;;21142929;28;20896;-67
2023/02/18 08:35:20;;;;;;;0.20;0.00;;;11.90;99.90;;;;;;21058849;28;20925;-67
2023/02/18 08:45:26;;;;;;;0.20;0.10;;;12.40;99.90;;;;;;21058638;28;20959;-69
2023/02/18 08:55:30;;;;;;;0.20;0.10;;;12.70;99.90;;;;;;21058768;28;20440;-66
2023/02/18 09:05:35;;;;;;;0.20;0.00;;;13.10;99.90;;;;;;21057588;28;20480;-67
2023/02/18 09:15:39;;;;;;;0.20;0.10;;;13.70;99.90;;;;;;21058243;28;20412;-68
2023/02/18 09:25:44;;;;;;;0.20;0.10;;;13.80;99.90;;;;;;21068581;28;20401;-67
2023/02/18 09:35:48;;;;;;;0.20;0.10;;;14.50;99.90;;;;;;21150124;28;20433;-67
2023/02/18 09:45:55;;;;;;;0.20;0.10;;;15.10;99.90;;;;;;21120940;28;20456;-69
2023/02/18 09:56:00;;;;;;;0.20;0.10;;;15.50;99.90;;;;;;21154621;28;20399;-67
2023/02/18 10:06:10;;;;;;;0.20;0.10;;;15.40;99.90;;;;;;21117826;28;20391;-69
2023/02/18 10:16:23;;;;;;;0.20;0.10;;;15.20;99.90;;;;;;21117934;28;20467;-70
2023/02/18 10:26:31;;;;;;;0.20;0.10;;;15.50;99.90;;;;;;21133750;28;20394;-69
2023/02/18 10:36:41;;;;;;;0.20;0.10;;;16.30;99.90;;;;;;21147947;28;20417;-69
2023/02/18 10:46:54;;;;;;;0.20;0.10;;;16.80;99.90;;;;;;21131384;28;20402;-68
2023/02/18 10:57:01;;;;;;;0.20;0.00;;;17.50;99.90;;;;;;21150269;28;20402;-68
2023/02/18 11:07:12;;;;;;;0.20;0.00;;;17.90;99.90;;;;;;21149108;28;20447;-70
2023/02/18 11:17:20;;;;;;;0.20;0.00;;;17.90;99.90;;;;;;21147908;28;20407;-67
2023/02/18 11:27:30;;;;;;;0.20;0.10;;;17.70;99.90;;;;;;21146804;28;20406;-69
2023/02/18 11:37:36;;;;;;;0.35;0.35;;;18.20;99.90;;;;;;21128263;28;20406;-69
2023/02/18 11:47:41;;;;;;;0.20;0.10;;;18.60;99.90;;;;;;21109916;28;20714;-67
2023/02/18 11:57:50;;;;;;;0.20;0.10;;;18.40;99.90;;;;;;21144982;28;20902;-70
2023/02/18 12:08:01;;;;;;;0.20;0.03;;;18.80;99.90;;;;;;21125025;28;20383;-68
2023/02/18 12:18:37;;;;;;;0.20;0.10;;;19.60;99.90;;;;;;21124902;28;20410;-68
2023/02/18 12:28:58;;;;;;;0.20;0.10;;;19.20;99.90;;;;;;21098891;28;20935;-68
2023/02/18 12:39:11;;;;;;;0.20;0.10;;;19.20;99.90;;;;;;21141744;28;20410;-68
2023/02/18 12:49:43;;;;;;;0.20;0.10;;;19.30;99.90;;;;;;21140515;28;20469;-68
2023/02/18 13:00:13;;;;;;;0.20;0.10;;;19.60;99.90;;;;;;21126655;28;20423;-69
2023/02/18 13:10:44;;;;;;;0.20;0.10;;;19.90;99.90;;;;;;21138412;28;20465;-68
2023/02/18 13:20:51;;;;;;;0.20;0.10;;;20.10;99.90;;;;;;21155763;28;20428;-68
2023/02/18 13:31:13;;;;;;;0.20;0.10;;;20.20;99.90;;;;;;21128102;28;20982;-67
2023/02/18 13:41:18;;;;;;;0.20;0.00;;;20.80;99.90;;;;;;21136243;28;20407;-69
2023/02/18 13:51:32;;;;;;;0.20;0.00;;;20.50;99.90;;;;;;21136812;28;20394;-68
2023/02/18 14:01:43;;;;;;;0.20;0.00;;;21.40;99.90;;;;;;21147146;28;20398;-67
2023/02/18 14:11:54;;;;;;;0.20;0.00;;;21.70;99.90;;;;;;21128778;28;20456;-68
2023/02/18 14:22:26;;;;;;;0.20;0.10;;;22.00;99.90;;;;;;21150542;28;20472;-68
2023/02/18 14:32:31;;;;;;;0.20;0.00;;;21.00;99.90;;;;;;21150506;28;20395;-67
2023/02/18 14:42:43;;;;;;;0.20;0.00;;;22.50;99.90;;;;;;21131410;28;20950;-68
2023/02/18 14:52:53;;;;;;;0.20;0.00;;;21.70;99.90;;;;;;21149492;28;20490;-68
2023/02/18 15:02:56;;;;;;;0.20;0.00;;;23.00;99.90;;;;;;21147510;28;20420;-68
2023/02/18 15:13:05;;;;;;;0.70;0.70;;;22.30;99.90;;;;;;21146992;28;20440;-66
2023/02/18 15:23:13;;;;;;;0.20;0.00;;;22.60;99.90;;;;;;21147449;28;20505;-67
2023/02/18 15:33:21;;;;;;;0.20;0.10;;;21.20;99.90;;;;;;21147382;28;20405;-67
2023/02/18 15:43:26;;;;;;;0.20;0.00;;;21.30;99.90;;;;;;21129607;28;20755;-68
2023/02/18 15:53:36;;;;;;;0.20;0.10;;;20.40;99.90;;;;;;21127310;28;20450;-67
2023/02/18 16:03:46;;;;;;;0.20;0.00;;;20.40;99.90;;;;;;21144698;28;20411;-66
2023/02/18 16:13:52;;;;;;;0.20;0.00;;;20.00;99.90;;;;;;21126939;28;20440;-67
2023/02/18 16:23:58;;;;;;;0.20;0.05;;;19.40;99.90;;;;;;21145211;28;20764;-67
2023/02/18 16:34:04;;;;;;;0.20;0.10;;;19.40;99.90;;;;;;21121656;28;20464;-68
2023/02/18 16:44:14;;;;;;;0.20;0.10;;;17.90;99.90;;;;;;21139654;28;20434;-68
2023/02/18 16:54:19;;;;;;;0.20;0.10;;;16.70;99.90;;;;;;21141396;28;20922;-70
2023/02/18 17:04:22;;;;;;;0.20;0.10;;;16.50;99.90;;;;;;21139952;28;20413;-67
2023/02/18 17:14:27;;;;;;;0.20;0.10;;;16.00;99.90;;;;;;21138255;28;20395;-67
2023/02/18 17:24:31;;;;;;;0.20;0.10;;;15.60;99.90;;;;;;21138123;28;20409;-67
2023/02/18 17:34:39;;;;;;;0.20;0.10;;;15.20;99.90;;;;;;21155105;28;20394;-68
2023/02/18 17:44:43;;;;;;;0.20;0.10;;;14.80;99.90;;;;;;21118606;28;20394;-67
2023/02/18 17:54:49;;;;;;;0.20;0.10;;;14.30;99.90;;;;;;21116792;28;20471;-70
2023/02/18 18:04:54;;;;;;;0.20;0.10;;;13.60;99.90;;;;;;21155098;28;20762;-69
2023/02/18 18:15:01;;;;;;;0.20;0.00;;;12.90;99.90;;;;;;21134402;28;20472;-70
2023/02/18 18:25:16;;;;;;;0.20;0.10;;;12.70;99.90;;;;;;21131183;28;20558;-67
2023/02/18 18:35:25;;;;;;;0.20;0.10;;;12.20;99.90;;;;;;21060497;28;20408;-69
2023/02/18 18:45:31;;;;;;;0.20;0.08;;;12.00;99.90;;;;;;21060478;28;20412;-66
2023/02/18 18:55:39;;;;;;;0.20;0.10;;;11.70;99.90;;;;;;21058233;28;20408;-65
2023/02/18 19:05:45;;;;;;;0.20;0.10;;;11.20;99.90;;;;;;21060135;28;20412;-68
2023/02/18 19:15:52;;;;;;;0.20;0.10;;;11.10;99.90;;;;;;21059688;28;20416;-69
2023/02/18 19:25:57;;;;;;;0.20;0.10;;;10.90;99.90;;;;;;21056050;28;20404;-67
2023/02/18 19:36:06;;;;;;;0.20;0.10;;;11.20;99.90;;;;;;21135186;28;20423;-66
2023/02/18 19:46:12;;;;;;;0.20;0.10;;;11.20;99.90;;;;;;21101731;28;20407;-67
2023/02/18 19:56:17;;;;;;;0.20;0.00;;;10.70;99.90;;;;;;21121139;28;20407;-67
2023/02/18 20:06:21;;;;;;;0.20;0.10;;;10.40;99.90;;;;;;21121856;28;20441;-68
2023/02/18 20:16:27;;;;;;;0.20;0.10;;;10.40;99.90;;;;;;21135931;28;20750;-68
2023/02/18 20:26:30;;;;;;;0.20;0.00;;;10.60;99.90;;;;;;21114485;28;20402;-68
2023/02/18 20:36:35;;;;;;;0.20;0.10;;;10.20;99.90;;;;;;21088121;28;20414;-67
2023/02/18 20:46:40;;;;;;;0.20;0.10;;;10.00;99.90;;;;;;21135593;28;20459;-67
2023/02/18 20:56:46;;;;;;;0.20;0.00;;;10.20;99.90;;;;;;21136322;28;20410;-68
2023/02/18 21:06:50;;;;;;;0.20;0.10;;;9.70;99.90;;;;;;21136515;28;20394;-67
2023/02/18 21:16:55;;;;;;;0.20;0.10;;;9.70;99.90;;;;;;21121203;28;20410;-66
2023/02/18 21:26:59;;;;;;;0.20;0.10;;;9.70;99.90;;;;;;21151327;28;20409;-70
2023/02/18 21:37:05;;;;;;;0.20;0.10;;;9.50;99.90;;;;;;21149629;28;20417;-67
2023/02/18 21:47:09;;;;;;;0.20;0.10;;;9.30;99.90;;;;;;21164820;27;20394;-68
2023/02/18 21:57:16;;;;;;;0.20;0.10;;;9.30;99.90;;;;;;21129865;28;20889;-68
2023/02/18 22:07:22;;;;;;;0.20;0.10;;;9.20;99.90;;;;;;21136711;28;20415;-69
2023/02/18 22:17:28;;;;;;;0.20;0.10;;;9.10;99.90;;;;;;21139201;28;20434;-69
2023/02/18 22:27:32;;;;;;;0.20;0.10;;;8.80;99.90;;;;;;21137839;28;20395;-70
2023/02/18 22:37:37;;;;;;;0.20;0.10;;;8.90;99.90;;;;;;21149464;28;20463;-67
2023/02/18 22:47:41;;;;;;;16.13;15.03;;;8.90;99.90;;;;;;21128721;28;20911;-70
2023/02/18 22:57:46;;;;;;;0.20;0.10;;;9.00;99.90;;;;;;21124794;28;20425;-68
2023/02/18 23:07:50;;;;;;;0.20;0.03;;;9.00;99.90;;;;;;21162104;27;20421;-69
2023/02/18 23:17:55;;;;;;;0.20;0.00;;;8.90;99.90;;;;;;21143009;28;20414;-68
2023/02/18 23:27:59;;;;;;;0.20;0.10;;;8.50;99.90;;;;;;21143785;28;20413;-68
2023/02/18 23:38:04;;;;;;;0.20;0.10;;;8.70;99.90;;;;;;21126587;28;20414;-68
2023/02/18 23:48:08;;;;;;;0.20;0.10;;;8.30;99.90;;;;;;21149202;27;20389;-69
2023/02/18 23:58:13;;;;;;;0.20;0.10;;;8.40;99.90;;;;;;21132907;28;20410;-68
